Terminal Aerodrome Forecast
Issued by NWS Bismarck, ND

Home | Current Version | Previous Version | Graphics & Text | Print | Product List | Glossary On
Versions: 1 2 3 4 5 6 7 8 9 10 11 12 13 14 15 16 17
976
FTUS43 KBIS 261741
TAFBIS
TAF
KBIS 261741Z 2618/2718 01015G20KT P6SM SCT025
      TEMPO 2618/2621 BKN025
     FM262300 02009KT P6SM BKN025
     FM270800 02005KT P6SM BKN015
     FM271500 01005KT P6SM SCT020=

USA.gov is the U.S. government's official web portal to all federal, state and local government web resources and services.